createdAt,value
2024-05-09T00:01:54.646Z,76.54
2024-05-09T00:06:57.282Z,76.55
2024-05-09T00:12:00.142Z,76.70
2024-05-09T00:17:03.302Z,76.84
2024-05-09T00:22:06.057Z,76.73
2024-05-09T00:27:11.284Z,77.10
2024-05-09T00:32:14.661Z,77.36
2024-05-09T00:37:17.428Z,77.64
2024-05-09T00:42:20.109Z,78.05
2024-05-09T00:47:24.166Z,78.37
2024-05-09T00:52:28.121Z,78.54
2024-05-09T00:57:30.774Z,78.57
2024-05-09T01:02:33.692Z,78.55
2024-05-09T01:07:37.059Z,78.68
2024-05-09T01:12:39.709Z,79.00
2024-05-09T01:17:42.678Z,79.39
2024-05-09T01:22:45.472Z,79.30
2024-05-09T01:27:48.130Z,79.14
2024-05-09T01:32:51.056Z,79.21
2024-05-09T01:37:54.228Z,79.59
2024-05-09T01:42:56.965Z,80.06
2024-05-09T01:47:59.978Z,80.54
2024-05-09T01:53:02.958Z,80.84
2024-05-09T01:58:06.080Z,80.76
2024-05-09T02:03:11.573Z,80.87
2024-05-09T02:08:19.455Z,81.33
2024-05-09T02:13:22.495Z,81.81
2024-05-09T02:18:25.187Z,82.16
2024-05-09T02:23:27.989Z,82.35
2024-05-09T02:28:30.840Z,82.66
2024-05-09T02:33:33.898Z,83.09
2024-05-09T02:38:37.297Z,83.31
2024-05-09T02:43:40.298Z,83.14
2024-05-09T02:48:43.464Z,83.04
2024-05-09T02:53:46.226Z,83.34
2024-05-09T02:58:48.975Z,83.70
2024-05-09T03:03:52.327Z,83.32
2024-05-09T03:08:55.194Z,83.16
2024-05-09T03:13:57.945Z,83.35
2024-05-09T03:19:00.792Z,83.32
2024-05-09T03:24:03.592Z,83.12
2024-05-09T03:29:06.239Z,83.29
2024-05-09T03:34:11.103Z,83.20
2024-05-09T03:39:13.866Z,83.09
2024-05-09T03:44:16.547Z,83.38
2024-05-09T03:49:19.292Z,83.01
2024-05-09T03:54:22.388Z,82.48
2024-05-09T03:59:25.042Z,81.81
2024-05-09T04:04:27.838Z,81.60
2024-05-09T04:09:30.470Z,81.24
2024-05-09T04:14:33.655Z,81.06
2024-05-09T04:19:36.523Z,80.65
2024-05-09T04:24:39.253Z,80.08
2024-05-09T04:29:41.860Z,79.71
2024-05-09T04:34:44.594Z,77.52
2024-05-09T04:39:47.213Z,68.88
2024-05-09T04:44:49.851Z,58.49
2024-05-09T04:49:52.541Z,48.74
2024-05-09T04:54:56.898Z,42.12
2024-05-09T05:00:02.999Z,38.47
2024-05-09T05:05:06.991Z,38.68
2024-05-09T05:10:14.864Z,40.61
2024-05-09T05:15:23.788Z,43.18
2024-05-09T05:20:32.861Z,45.24
2024-05-09T05:25:37.868Z,47.47
2024-05-09T05:30:41.468Z,48.66
2024-05-09T05:35:45.257Z,49.57
2024-05-09T05:40:48.115Z,49.72
2024-05-09T05:45:51.151Z,50.23
2024-05-09T05:50:53.813Z,51.62
2024-05-09T05:55:56.665Z,52.21
2024-05-09T06:00:59.403Z,51.45
2024-05-09T06:06:04.170Z,51.50
2024-05-09T06:11:07.781Z,50.42
2024-05-09T06:16:11.608Z,49.94
2024-05-09T06:21:17.733Z,49.55
2024-05-09T06:26:21.085Z,50.00
2024-05-09T06:31:26.684Z,47.74
2024-05-09T06:36:30.019Z,40.34
2024-05-09T06:41:38.432Z,33.33
2024-05-09T06:46:42.008Z,29.19
2024-05-09T06:51:44.970Z,27.74
2024-05-09T06:56:49.709Z,25.03
2024-05-09T07:01:52.714Z,23.95
2024-05-09T07:06:59.012Z,23.36
2024-05-09T07:12:02.211Z,22.92
2024-05-09T07:17:05.467Z,21.70
2024-05-09T07:22:09.702Z,21.22
2024-05-09T07:27:13.149Z,22.74
2024-05-09T07:32:16.515Z,23.84
2024-05-09T07:37:19.342Z,22.84
2024-05-09T07:42:24.787Z,22.18
2024-05-09T07:53:33.083Z,22.72
2024-05-09T07:57:56.615Z,22.84
2024-05-09T08:02:59.521Z,22.71
2024-05-09T08:08:02.670Z,22.45
2024-05-09T08:13:05.645Z,23.10
2024-05-09T08:18:09.924Z,23.44
2024-05-09T08:23:12.862Z,22.74
2024-05-09T08:28:16.824Z,22.54
2024-05-09T08:33:19.684Z,23.46
2024-05-09T08:38:22.969Z,23.84
2024-05-09T08:43:29.069Z,23.96
2024-05-09T08:48:34.503Z,24.38
2024-05-09T08:53:37.646Z,24.53
2024-05-09T08:58:41.936Z,24.60
2024-05-09T09:03:44.988Z,25.45
2024-05-09T09:08:48.755Z,25.80
2024-05-09T09:13:51.485Z,25.85
2024-05-09T09:18:57.735Z,26.08
2024-05-09T09:24:01.297Z,26.34
2024-05-09T09:29:04.344Z,27.34
2024-05-09T09:34:09.539Z,28.92
2024-05-09T09:39:16.598Z,28.66
2024-05-09T09:44:23.565Z,29.75
2024-05-09T09:49:27.826Z,30.70
2024-05-09T09:54:30.831Z,31.70
2024-05-09T09:59:35.741Z,32.12
2024-05-09T10:04:38.599Z,32.68
2024-05-09T10:09:42.416Z,33.62
2024-05-09T10:14:45.820Z,33.44
2024-05-09T10:19:48.843Z,33.89
2024-05-09T10:24:53.400Z,34.32
2024-05-09T10:29:58.286Z,35.38
2024-05-09T10:35:05.430Z,35.21
2024-05-09T10:40:14.241Z,35.87
2024-05-09T10:45:26.289Z,36.12
2024-05-09T10:50:34.380Z,36.41
2024-05-09T10:55:37.494Z,36.17
2024-05-09T11:00:47.924Z,37.08
2024-05-09T11:05:56.039Z,36.47
2024-05-09T11:11:00.062Z,36.67
2024-05-09T11:16:04.680Z,36.58
2024-05-09T11:21:13.975Z,37.00
2024-05-09T11:26:19.335Z,37.28
2024-05-09T11:31:22.376Z,36.89
2024-05-09T11:36:26.143Z,37.29
2024-05-09T11:41:30.990Z,37.01
2024-05-09T11:46:33.864Z,38.03
2024-05-09T11:51:36.780Z,38.71
2024-05-09T11:56:39.509Z,39.36
2024-05-09T12:01:42.272Z,39.03
2024-05-09T12:06:46.073Z,39.65
2024-05-09T12:11:48.962Z,39.55
2024-05-09T12:16:51.725Z,39.34
2024-05-09T12:21:54.495Z,39.25
2024-05-09T12:26:57.749Z,39.39
2024-05-09T12:32:00.466Z,39.48
2024-05-09T12:37:04.693Z,39.30
2024-05-09T12:42:09.782Z,39.39
2024-05-09T12:47:13.739Z,39.44
2024-05-09T12:52:16.755Z,39.48
2024-05-09T12:57:20.003Z,39.59
2024-05-09T13:02:22.992Z,39.28
2024-05-09T13:07:25.865Z,39.25
2024-05-09T13:12:28.575Z,38.94
2024-05-09T13:17:31.659Z,39.44
2024-05-09T13:22:34.960Z,39.64
2024-05-09T13:27:39.757Z,38.74
2024-05-09T13:32:42.814Z,39.09
2024-05-09T13:37:46.246Z,39.35
2024-05-09T13:42:49.013Z,39.42
2024-05-09T13:47:52.059Z,39.60
2024-05-09T13:52:55.927Z,39.49
2024-05-09T13:57:58.785Z,39.29
2024-05-09T14:03:04.175Z,39.19
2024-05-09T14:08:08.793Z,38.68
2024-05-09T14:13:11.926Z,39.21
2024-05-09T14:18:15.597Z,39.07
2024-05-09T14:23:18.828Z,39.12
2024-05-09T14:28:24.767Z,39.01
2024-05-09T14:33:27.549Z,39.63
2024-05-09T14:38:30.480Z,39.34
2024-05-09T14:43:36.549Z,39.26
2024-05-09T14:48:42.589Z,39.06
2024-05-09T14:53:45.681Z,38.42
2024-05-09T14:58:48.621Z,38.26
2024-05-09T15:03:52.272Z,38.64
2024-05-09T15:08:57.475Z,39.55
2024-05-09T15:14:00.133Z,39.85
2024-05-09T15:19:04.817Z,40.06
2024-05-09T15:24:07.530Z,40.16
2024-05-09T15:29:10.435Z,40.36
2024-05-09T15:34:13.171Z,39.29
2024-05-09T15:39:15.879Z,38.33
2024-05-09T15:44:19.928Z,39.08
2024-05-09T15:49:22.905Z,39.76
2024-05-09T15:54:27.713Z,40.26
2024-05-09T15:59:30.444Z,40.80
2024-05-09T16:04:33.312Z,40.92
2024-05-09T16:09:36.279Z,41.35
2024-05-09T16:14:39.419Z,42.04
2024-05-09T16:19:43.623Z,42.45
2024-05-09T16:24:46.352Z,42.60
2024-05-09T16:29:49.052Z,42.81
2024-05-09T16:34:52.407Z,42.66
2024-05-09T16:39:55.193Z,43.03
2024-05-09T16:44:58.292Z,43.34
2024-05-09T16:50:00.893Z,43.68
2024-05-09T16:55:04.168Z,43.82
2024-05-09T17:00:14.863Z,43.96
2024-05-09T17:05:24.793Z,44.18
2024-05-09T17:10:32.802Z,44.41
2024-05-09T17:15:40.270Z,45.19
2024-05-09T17:20:43.087Z,45.37
2024-05-09T17:25:48.094Z,45.98
2024-05-09T17:30:51.210Z,46.10
2024-05-09T17:35:53.996Z,46.30
2024-05-09T17:40:58.178Z,46.88
2024-05-09T17:46:01.185Z,47.16
2024-05-09T17:51:04.224Z,47.36
2024-05-09T17:56:09.321Z,47.75
2024-05-09T18:01:12.558Z,48.16
2024-05-09T18:06:16.807Z,48.47
2024-05-09T18:11:19.756Z,48.71
2024-05-09T18:16:23.283Z,48.95
2024-05-09T18:21:27.212Z,49.44
2024-05-09T18:26:40.857Z,49.94
2024-05-09T18:31:43.635Z,50.48
2024-05-09T18:36:46.646Z,50.97
2024-05-09T18:41:49.443Z,51.52
2024-05-09T18:46:52.202Z,51.76
2024-05-09T18:51:54.905Z,52.47
2024-05-09T18:57:00.778Z,52.86
2024-05-09T19:02:04.234Z,53.16
2024-05-09T19:07:09.453Z,53.63
2024-05-09T19:12:14.622Z,54.00
2024-05-09T19:17:25.003Z,54.40
2024-05-09T19:22:28.506Z,54.88
2024-05-09T19:27:31.586Z,55.31
2024-05-09T19:32:34.435Z,55.47
2024-05-09T19:37:41.443Z,55.88
2024-05-09T19:42:45.578Z,56.37
2024-05-09T19:47:48.529Z,56.70
2024-05-09T19:52:51.933Z,57.27
2024-05-09T19:57:54.670Z,57.97
2024-05-09T20:02:57.481Z,58.41
2024-05-09T20:08:01.232Z,58.66
2024-05-09T20:13:06.987Z,58.94
2024-05-09T20:18:10.898Z,59.57
2024-05-09T20:23:14.051Z,59.82
2024-05-09T20:28:20.974Z,60.31
2024-05-09T20:33:23.774Z,60.51
2024-05-09T20:38:26.550Z,60.74
2024-05-09T20:43:29.429Z,60.96
2024-05-09T20:48:34.276Z,62.58
2024-05-09T20:53:37.484Z,63.38
2024-05-09T20:58:42.503Z,63.37
2024-05-09T21:03:45.294Z,63.26
2024-05-09T21:08:49.521Z,63.91
2024-05-09T21:13:52.721Z,64.46
2024-05-09T21:18:55.399Z,64.57
2024-05-09T21:23:59.517Z,64.38
2024-05-09T21:29:02.348Z,64.51
2024-05-09T21:34:05.174Z,64.62
2024-05-09T21:39:10.318Z,64.71
2024-05-09T21:44:12.984Z,64.94
2024-05-09T21:49:17.297Z,65.18
2024-05-09T21:54:20.177Z,65.85
2024-05-09T21:59:22.834Z,66.75
2024-05-09T22:04:25.670Z,67.14
2024-05-09T22:09:28.431Z,67.78
2024-05-09T22:14:31.123Z,68.46
2024-05-09T22:19:33.945Z,68.72
2024-05-09T22:24:36.984Z,68.75
2024-05-09T22:29:39.743Z,68.72
2024-05-09T22:34:42.496Z,68.74
2024-05-09T22:39:45.487Z,68.55
2024-05-09T22:44:48.180Z,68.33
2024-05-09T22:49:50.874Z,68.60
2024-05-09T22:54:53.523Z,68.72
2024-05-09T22:59:56.251Z,69.24
2024-05-09T23:04:59.036Z,69.54
2024-05-09T23:10:01.923Z,69.63
2024-05-09T23:15:06.088Z,69.70
2024-05-09T23:20:11.590Z,69.98
2024-05-09T23:25:14.753Z,70.01
2024-05-09T23:30:28.406Z,70.17
2024-05-09T23:35:37.162Z,70.09
2024-05-09T23:40:41.615Z,70.14
2024-05-09T23:45:45.619Z,70.40
2024-05-09T23:50:49.670Z,70.47
2024-05-09T23:55:52.347Z,70.49
